sensor_id;sensor_type;location;lat;lon;timestamp;pressure;altitude;pressure_sealevel;temperature;humidity
47985;BME280;33753;52.912;-7.342;2023-03-14T00:00:16;98298.75;;;2.30;100.00
47985;BME280;33753;52.912;-7.342;2023-03-14T00:02:45;98309.09;;;2.33;100.00
47985;BME280;33753;52.912;-7.342;2023-03-14T00:05:14;98301.19;;;2.40;100.00
47985;BME280;33753;52.912;-7.342;2023-03-14T00:07:43;98306.22;;;2.43;100.00
47985;BME280;33753;52.912;-7.342;2023-03-14T00:10:13;98324.38;;;2.48;100.00
47985;BME280;33753;52.912;-7.342;2023-03-14T00:12:43;98327.50;;;2.51;100.00
47985;BME280;33753;52.912;-7.342;2023-03-14T00:15:12;98343.84;;;2.56;100.00
47985;BME280;33753;52.912;-7.342;2023-03-14T00:17:43;98344.84;;;2.55;100.00
47985;BME280;33753;52.912;-7.342;2023-03-14T00:20:12;98346.84;;;2.62;100.00
47985;BME280;33753;52.912;-7.342;2023-03-14T00:22:41;98343.50;;;2.59;100.00
47985;BME280;33753;52.912;-7.342;2023-03-14T00:25:11;98341.16;;;2.65;100.00
47985;BME280;33753;52.912;-7.342;2023-03-14T00:27:44;98352.31;;;2.68;100.00
47985;BME280;33753;52.912;-7.342;2023-03-14T00:30:13;98347.13;;;2.67;100.00
47985;BME280;33753;52.912;-7.342;2023-03-14T00:32:42;98352.81;;;2.72;100.00
47985;BME280;33753;52.912;-7.342;2023-03-14T00:35:11;98351.63;;;2.74;100.00
47985;BME280;33753;52.912;-7.342;2023-03-14T00:37:40;98351.63;;;2.74;100.00
47985;BME280;33753;52.912;-7.342;2023-03-14T00:40:10;98359.94;;;2.80;100.00
47985;BME280;33753;52.912;-7.342;2023-03-14T00:42:39;98364.91;;;2.83;100.00
47985;BME280;33753;52.912;-7.342;2023-03-14T00:45:10;98374.44;;;2.85;100.00
47985;BME280;33753;52.912;-7.342;2023-03-14T00:47:39;98381.44;;;2.86;100.00
47985;BME280;33753;52.912;-7.342;2023-03-14T00:50:12;98383.09;;;2.87;100.00
47985;BME280;33753;52.912;-7.342;2023-03-14T00:52:41;98391.94;;;2.88;100.00
47985;BME280;33753;52.912;-7.342;2023-03-14T00:55:10;98400.31;;;2.85;100.00
47985;BME280;33753;52.912;-7.342;2023-03-14T00:57:39;98406.31;;;2.79;100.00
47985;BME280;33753;52.912;-7.342;2023-03-14T01:00:11;98408.19;;;2.70;100.00
47985;BME280;33753;52.912;-7.342;2023-03-14T01:02:40;98413.22;;;2.65;100.00
47985;BME280;33753;52.912;-7.342;2023-03-14T01:05:09;98427.56;;;2.64;100.00
47985;BME280;33753;52.912;-7.342;2023-03-14T01:07:38;98435.91;;;2.61;100.00
47985;BME280;33753;52.912;-7.342;2023-03-14T01:10:08;98440.56;;;2.58;100.00
47985;BME280;33753;52.912;-7.342;2023-03-14T01:12:37;98445.25;;;2.56;100.00
47985;BME280;33753;52.912;-7.342;2023-03-14T01:15:06;98447.28;;;2.54;100.00
47985;BME280;33753;52.912;-7.342;2023-03-14T01:17:37;98450.94;;;2.53;100.00
47985;BME280;33753;52.912;-7.342;2023-03-14T01:20:07;98446.78;;;2.51;100.00
47985;BME280;33753;52.912;-7.342;2023-03-14T01:22:38;98458.31;;;2.43;100.00
47985;BME280;33753;52.912;-7.342;2023-03-14T01:25:08;98462.78;;;2.34;100.00
47985;BME280;33753;52.912;-7.342;2023-03-14T01:27:37;98455.63;;;2.27;100.00
47985;BME280;33753;52.912;-7.342;2023-03-14T01:30:07;98460.81;;;2.20;100.00
47985;BME280;33753;52.912;-7.342;2023-03-14T01:32:37;98458.97;;;2.12;100.00
47985;BME280;33753;52.912;-7.342;2023-03-14T01:35:06;98463.16;;;2.06;100.00
47985;BME280;33753;52.912;-7.342;2023-03-14T01:37:35;98466.66;;;1.99;100.00
47985;BME280;33753;52.912;-7.342;2023-03-14T01:40:08;98471.63;;;1.94;100.00
47985;BME280;33753;52.912;-7.342;2023-03-14T01:42:37;98481.28;;;1.86;100.00
47985;BME280;33753;52.912;-7.342;2023-03-14T01:48:09;98484.28;;;1.75;100.00
47985;BME280;33753;52.912;-7.342;2023-03-14T01:50:37;98491.09;;;1.69;100.00
47985;BME280;33753;52.912;-7.342;2023-03-14T01:53:06;98509.09;;;1.67;100.00
47985;BME280;33753;52.912;-7.342;2023-03-14T01:55:35;98514.44;;;1.67;100.00
47985;BME280;33753;52.912;-7.342;2023-03-14T01:58:04;98527.06;;;1.65;100.00
47985;BME280;33753;52.912;-7.342;2023-03-14T02:00:33;98524.22;;;1.67;100.00
47985;BME280;33753;52.912;-7.342;2023-03-14T02:03:05;98530.91;;;1.71;100.00
47985;BME280;33753;52.912;-7.342;2023-03-14T02:05:39;98541.56;;;1.71;100.00
47985;BME280;33753;52.912;-7.342;2023-03-14T02:08:18;98557.22;;;1.74;100.00
47985;BME280;33753;52.912;-7.342;2023-03-14T02:10:50;98562.22;;;1.77;100.00
47985;BME280;33753;52.912;-7.342;2023-03-14T02:13:25;98567.91;;;1.82;100.00
47985;BME280;33753;52.912;-7.342;2023-03-14T02:16:03;98576.28;;;1.87;100.00
47985;BME280;33753;52.912;-7.342;2023-03-14T02:18:49;98588.13;;;1.93;100.00
47985;BME280;33753;52.912;-7.342;2023-03-14T02:21:46;98609.63;;;2.00;100.00
47985;BME280;33753;52.912;-7.342;2023-03-14T02:24:25;98621.31;;;2.07;100.00
47985;BME280;33753;52.912;-7.342;2023-03-14T02:27:05;98630.00;;;2.09;100.00
47985;BME280;33753;52.912;-7.342;2023-03-14T02:29:41;98640.00;;;2.15;100.00
47985;BME280;33753;52.912;-7.342;2023-03-14T02:32:14;98666.03;;;2.21;100.00
47985;BME280;33753;52.912;-7.342;2023-03-14T02:34:47;98670.50;;;2.13;100.00
47985;BME280;33753;52.912;-7.342;2023-03-14T02:37:19;98675.03;;;2.20;100.00
47985;BME280;33753;52.912;-7.342;2023-03-14T02:39:49;98689.38;;;2.19;100.00
47985;BME280;33753;52.912;-7.342;2023-03-14T02:42:19;98711.34;;;2.13;100.00
47985;BME280;33753;52.912;-7.342;2023-03-14T02:44:51;98707.88;;;2.21;100.00
47985;BME280;33753;52.912;-7.342;2023-03-14T02:47:25;98713.22;;;2.21;100.00
47985;BME280;33753;52.912;-7.342;2023-03-14T02:49:59;98718.34;;;2.06;100.00
47985;BME280;33753;52.912;-7.342;2023-03-14T02:52:30;98723.81;;;2.04;100.00
47985;BME280;33753;52.912;-7.342;2023-03-14T02:54:58;98745.13;;;1.96;100.00
47985;BME280;33753;52.912;-7.342;2023-03-14T02:57:28;98751.38;;;1.87;100.00
47985;BME280;33753;52.912;-7.342;2023-03-14T02:59:58;98756.22;;;1.83;100.00
47985;BME280;33753;52.912;-7.342;2023-03-14T03:02:31;98760.34;;;1.78;100.00
47985;BME280;33753;52.912;-7.342;2023-03-14T03:04:59;98768.19;;;1.79;100.00
47985;BME280;33753;52.912;-7.342;2023-03-14T03:07:28;98751.66;;;1.76;100.00
47985;BME280;33753;52.912;-7.342;2023-03-14T03:09:58;98749.13;;;1.74;100.00
47985;BME280;33753;52.912;-7.342;2023-03-14T03:12:30;98763.59;;;1.63;100.00
47985;BME280;33753;52.912;-7.342;2023-03-14T03:14:58;98768.91;;;1.63;100.00
47985;BME280;33753;52.912;-7.342;2023-03-14T03:17:27;98754.69;;;1.54;100.00
47985;BME280;33753;52.912;-7.342;2023-03-14T03:19:55;98770.69;;;1.54;100.00
47985;BME280;33753;52.912;-7.342;2023-03-14T03:22:24;98770.38;;;1.58;100.00
47985;BME280;33753;52.912;-7.342;2023-03-14T03:24:52;98770.69;;;1.54;100.00
47985;BME280;33753;52.912;-7.342;2023-03-14T03:27:21;98765.34;;;1.54;100.00
47985;BME280;33753;52.912;-7.342;2023-03-14T03:29:51;98754.84;;;1.53;100.00
47985;BME280;33753;52.912;-7.342;2023-03-14T03:32:19;98767.00;;;1.55;100.00
47985;BME280;33753;52.912;-7.342;2023-03-14T03:34:49;98772.34;;;1.55;100.00
47985;BME280;33753;52.912;-7.342;2023-03-14T03:37:18;98773.50;;;1.53;100.00
47985;BME280;33753;52.912;-7.342;2023-03-14T03:39:46;98782.97;;;1.47;100.00
47985;BME280;33753;52.912;-7.342;2023-03-14T03:42:15;98781.03;;;1.40;100.00
47985;BME280;33753;52.912;-7.342;2023-03-14T03:44:43;98779.84;;;1.34;100.00
47985;BME280;33753;52.912;-7.342;2023-03-14T03:47:14;98788.75;;;1.25;100.00
47985;BME280;33753;52.912;-7.342;2023-03-14T03:49:42;98799.63;;;1.13;100.00
47985;BME280;33753;52.912;-7.342;2023-03-14T03:52:10;98815.69;;;1.03;100.00
47985;BME280;33753;52.912;-7.342;2023-03-14T03:54:39;98818.25;;;0.95;100.00
47985;BME280;33753;52.912;-7.342;2023-03-14T03:57:08;98828.66;;;0.89;100.00
47985;BME280;33753;52.912;-7.342;2023-03-14T03:59:36;98846.91;;;0.83;100.00
47985;BME280;33753;52.912;-7.342;2023-03-14T04:02:07;98884.38;;;0.72;100.00
47985;BME280;33753;52.912;-7.342;2023-03-14T04:04:37;98883.97;;;0.67;100.00
47985;BME280;33753;52.912;-7.342;2023-03-14T04:07:06;98897.56;;;0.64;100.00
47985;BME280;33753;52.912;-7.342;2023-03-14T04:09:37;98920.44;;;0.57;100.00
47985;BME280;33753;52.912;-7.342;2023-03-14T04:12:20;98935.00;;;0.52;100.00
47985;BME280;33753;52.912;-7.342;2023-03-14T04:14:59;98952.38;;;0.47;100.00
47985;BME280;33753;52.912;-7.342;2023-03-14T04:17:27;98978.44;;;0.43;100.00
47985;BME280;33753;52.912;-7.342;2023-03-14T04:19:57;99002.25;;;0.35;100.00
47985;BME280;33753;52.912;-7.342;2023-03-14T04:22:33;99008.00;;;0.30;100.00
47985;BME280;33753;52.912;-7.342;2023-03-14T04:25:02;99005.63;;;0.27;100.00
47985;BME280;33753;52.912;-7.342;2023-03-14T04:27:35;99024.78;;;0.21;100.00
47985;BME280;33753;52.912;-7.342;2023-03-14T04:30:10;99008.44;;;0.16;100.00
47985;BME280;33753;52.912;-7.342;2023-03-14T04:32:50;99003.41;;;0.13;100.00
47985;BME280;33753;52.912;-7.342;2023-03-14T04:35:22;99011.50;;;0.11;100.00
47985;BME280;33753;52.912;-7.342;2023-03-14T04:37:55;99023.53;;;0.06;100.00
47985;BME280;33753;52.912;-7.342;2023-03-14T04:40:24;99031.09;;;0.01;100.00
47985;BME280;33753;52.912;-7.342;2023-03-14T04:42:57;99028.88;;;-0.04;100.00
47985;BME280;33753;52.912;-7.342;2023-03-14T04:45:26;99039.63;;;-0.06;100.00
47985;BME280;33753;52.912;-7.342;2023-03-14T04:47:57;99053.03;;;-0.07;100.00
47985;BME280;33753;52.912;-7.342;2023-03-14T04:50:27;99073.31;;;-0.06;100.00
47985;BME280;33753;52.912;-7.342;2023-03-14T04:52:56;99078.91;;;-0.09;100.00
47985;BME280;33753;52.912;-7.342;2023-03-14T04:55:25;99081.72;;;-0.11;100.00
47985;BME280;33753;52.912;-7.342;2023-03-14T04:57:55;99103.13;;;-0.12;100.00
47985;BME280;33753;52.912;-7.342;2023-03-14T05:00:24;99115.00;;;-0.16;100.00
47985;BME280;33753;52.912;-7.342;2023-03-14T05:03:03;99124.22;;;-0.21;100.00
47985;BME280;33753;52.912;-7.342;2023-03-14T05:05:58;99130.09;;;-0.27;100.00
47985;BME280;33753;52.912;-7.342;2023-03-14T05:09:00;99133.97;;;-0.31;100.00
47985;BME280;33753;52.912;-7.342;2023-03-14T05:11:47;99140.66;;;-0.37;100.00
47985;BME280;33753;52.912;-7.342;2023-03-14T05:14:50;99136.72;;;-0.42;100.00
47985;BME280;33753;52.912;-7.342;2023-03-14T05:17:24;99145.94;;;-0.46;100.00
47985;BME280;33753;52.912;-7.342;2023-03-14T05:20:19;99157.09;;;-0.53;100.00
47985;BME280;33753;52.912;-7.342;2023-03-14T05:23:04;99159.31;;;-0.58;100.00
47985;BME280;33753;52.912;-7.342;2023-03-14T05:25:51;99165.97;;;-0.63;100.00
47985;BME280;33753;52.912;-7.342;2023-03-14T05:28:55;99163.72;;;-0.68;100.00
47985;BME280;33753;52.912;-7.342;2023-03-14T05:31:49;99167.63;;;-0.72;100.00
47985;BME280;33753;52.912;-7.342;2023-03-14T05:34:40;99195.53;;;-0.78;100.00
47985;BME280;33753;52.912;-7.342;2023-03-14T05:37:29;99196.63;;;-0.80;100.00
47985;BME280;33753;52.912;-7.342;2023-03-14T05:40:17;99201.94;;;-0.80;100.00
47985;BME280;33753;52.912;-7.342;2023-03-14T05:43:18;99205.81;;;-0.84;100.00
47985;BME280;33753;52.912;-7.342;2023-03-14T05:46:06;99213.91;;;-0.86;100.00
47985;BME280;33753;52.912;-7.342;2023-03-14T05:48:53;99223.97;;;-0.90;100.00
47985;BME280;33753;52.912;-7.342;2023-03-14T05:51:42;99230.50;;;-0.94;100.00
47985;BME280;33753;52.912;-7.342;2023-03-14T05:54:20;99231.72;;;-0.98;100.00
47985;BME280;33753;52.912;-7.342;2023-03-14T05:57:09;99233.69;;;-1.00;100.00
47985;BME280;33753;52.912;-7.342;2023-03-14T05:59:48;99236.81;;;-1.06;100.00
47985;BME280;33753;52.912;-7.342;2023-03-14T06:02:36;99247.00;;;-1.11;100.00
47985;BME280;33753;52.912;-7.342;2023-03-14T06:05:15;99254.72;;;-1.19;100.00
47985;BME280;33753;52.912;-7.342;2023-03-14T06:07:44;99257.91;;;-1.26;100.00
47985;BME280;33753;52.912;-7.342;2023-03-14T06:10:13;99273.09;;;-1.28;100.00
47985;BME280;33753;52.912;-7.342;2023-03-14T06:12:43;99282.25;;;-1.32;100.00
47985;BME280;33753;52.912;-7.342;2023-03-14T06:15:11;99286.38;;;-1.39;100.00
47985;BME280;33753;52.912;-7.342;2023-03-14T06:17:42;99296.97;;;-1.39;100.00
47985;BME280;33753;52.912;-7.342;2023-03-14T06:20:12;99303.50;;;-1.43;100.00
47985;BME280;33753;52.912;-7.342;2023-03-14T06:22:41;99309.78;;;-1.44;100.00
47985;BME280;33753;52.912;-7.342;2023-03-14T06:25:11;99317.00;;;-1.46;100.00
47985;BME280;33753;52.912;-7.342;2023-03-14T06:27:42;99322.56;;;-1.49;100.00
47985;BME280;33753;52.912;-7.342;2023-03-14T06:30:11;99330.03;;;-1.54;100.00
47985;BME280;33753;52.912;-7.342;2023-03-14T06:32:39;99331.03;;;-1.55;100.00
47985;BME280;33753;52.912;-7.342;2023-03-14T06:35:11;99337.28;;;-1.57;100.00
47985;BME280;33753;52.912;-7.342;2023-03-14T06:37:42;99337.53;;;-1.60;100.00
47985;BME280;33753;52.912;-7.342;2023-03-14T06:40:12;99340.31;;;-1.61;100.00
47985;BME280;33753;52.912;-7.342;2023-03-14T06:42:55;99340.31;;;-1.61;100.00
47985;BME280;33753;52.912;-7.342;2023-03-14T06:45:27;99349.09;;;-1.61;100.00
47985;BME280;33753;52.912;-7.342;2023-03-14T06:47:57;99353.44;;;-1.60;100.00
47985;BME280;33753;52.912;-7.342;2023-03-14T06:50:35;99356.22;;;-1.61;100.00
47985;BME280;33753;52.912;-7.342;2023-03-14T06:53:04;99371.38;;;-1.63;100.00
47985;BME280;33753;52.912;-7.342;2023-03-14T06:55:34;99374.91;;;-1.63;100.00
47985;BME280;33753;52.912;-7.342;2023-03-14T06:58:05;99390.06;;;-1.65;100.00
47985;BME280;33753;52.912;-7.342;2023-03-14T07:00:40;99396.22;;;-1.64;100.00
47985;BME280;33753;52.912;-7.342;2023-03-14T07:03:11;99407.53;;;-1.62;100.00
47985;BME280;33753;52.912;-7.342;2023-03-14T07:05:44;99409.81;;;-1.58;100.00
47985;BME280;33753;52.912;-7.342;2023-03-14T07:08:13;99424.53;;;-1.53;100.00
47985;BME280;33753;52.912;-7.342;2023-03-14T07:10:42;99429.47;;;-1.49;100.00
47985;BME280;33753;52.912;-7.342;2023-03-14T07:13:12;99436.00;;;-1.42;100.00
47985;BME280;33753;52.912;-7.342;2023-03-14T07:15:53;99436.13;;;-1.32;100.00
47985;BME280;33753;52.912;-7.342;2023-03-14T07:18:22;99447.69;;;-1.22;100.00
47985;BME280;33753;52.912;-7.342;2023-03-14T07:20:50;99453.97;;;-1.11;100.00
47985;BME280;33753;52.912;-7.342;2023-03-14T07:23:19;99463.59;;;-0.99;100.00
47985;BME280;33753;52.912;-7.342;2023-03-14T07:25:50;99469.88;;;-0.89;100.00
47985;BME280;33753;52.912;-7.342;2023-03-14T07:28:24;99474.31;;;-0.78;100.00
47985;BME280;33753;52.912;-7.342;2023-03-14T07:31:11;99486.63;;;-0.65;100.00
47985;BME280;33753;52.912;-7.342;2023-03-14T07:33:40;99496.84;;;-0.61;100.00
47985;BME280;33753;52.912;-7.342;2023-03-14T07:36:09;99496.84;;;-0.49;100.00
47985;BME280;33753;52.912;-7.342;2023-03-14T07:38:41;99517.31;;;-0.40;100.00
47985;BME280;33753;52.912;-7.342;2023-03-14T07:41:31;99524.69;;;-0.32;100.00
47985;BME280;33753;52.912;-7.342;2023-03-14T07:44:20;99532.97;;;-0.26;100.00
47985;BME280;33753;52.912;-7.342;2023-03-14T07:46:48;99540.47;;;-0.20;100.00
47985;BME280;33753;52.912;-7.342;2023-03-14T07:49:17;99550.72;;;-0.15;100.00
47985;BME280;33753;52.912;-7.342;2023-03-14T07:51:47;99559.63;;;-0.05;100.00
47985;BME280;33753;52.912;-7.342;2023-03-14T07:54:15;99558.28;;;0.01;100.00
47985;BME280;33753;52.912;-7.342;2023-03-14T07:56:47;99556.81;;;0.08;100.00
47985;BME280;33753;52.912;-7.342;2023-03-14T07:59:15;99561.50;;;0.16;100.00
47985;BME280;33753;52.912;-7.342;2023-03-14T08:01:45;99558.94;;;0.26;100.00
47985;BME280;33753;52.912;-7.342;2023-03-14T08:04:14;99574.59;;;0.40;100.00
47985;BME280;33753;52.912;-7.342;2023-03-14T08:06:42;99582.16;;;0.45;100.00
47985;BME280;33753;52.912;-7.342;2023-03-14T08:09:11;99576.66;;;0.58;100.00
47985;BME280;33753;52.912;-7.342;2023-03-14T08:11:39;99582.50;;;0.73;100.00
47985;BME280;33753;52.912;-7.342;2023-03-14T08:14:08;99582.44;;;0.84;100.00
47985;BME280;33753;52.912;-7.342;2023-03-14T08:16:37;99587.28;;;1.00;100.00
47985;BME280;33753;52.912;-7.342;2023-03-14T08:19:08;99586.41;;;1.20;100.00
47985;BME280;33753;52.912;-7.342;2023-03-14T08:21:37;99594.22;;;1.43;100.00
47985;BME280;33753;52.912;-7.342;2023-03-14T08:24:05;99602.13;;;1.64;100.00
47985;BME280;33753;52.912;-7.342;2023-03-14T08:26:34;99602.66;;;1.89;100.00
47985;BME280;33753;52.912;-7.342;2023-03-14T08:29:03;99614.06;;;2.11;100.00
47985;BME280;33753;52.912;-7.342;2023-03-14T08:31:31;99625.03;;;2.37;100.00
47985;BME280;33753;52.912;-7.342;2023-03-14T08:34:00;99617.59;;;2.70;100.00
47985;BME280;33753;52.912;-7.342;2023-03-14T08:36:30;99620.78;;;3.03;100.00
47985;BME280;33753;52.912;-7.342;2023-03-14T08:38:59;99624.69;;;3.18;100.00
47985;BME280;33753;52.912;-7.342;2023-03-14T08:41:28;99626.31;;;3.39;100.00
47985;BME280;33753;52.912;-7.342;2023-03-14T08:43:56;99622.28;;;3.62;100.00
47985;BME280;33753;52.912;-7.342;2023-03-14T08:46:25;99631.31;;;3.89;100.00
47985;BME280;33753;52.912;-7.342;2023-03-14T08:48:53;99616.66;;;4.11;100.00
47985;BME280;33753;52.912;-7.342;2023-03-14T08:51:21;99630.69;;;4.59;100.00
47985;BME280;33753;52.912;-7.342;2023-03-14T08:53:52;99632.16;;;5.16;100.00
47985;BME280;33753;52.912;-7.342;2023-03-14T08:56:21;99642.44;;;5.55;100.00
47985;BME280;33753;52.912;-7.342;2023-03-14T08:58:51;99634.34;;;6.16;100.00
47985;BME280;33753;52.912;-7.342;2023-03-14T09:01:20;99618.56;;;6.04;100.00
47985;BME280;33753;52.912;-7.342;2023-03-14T09:03:51;99620.00;;;6.58;100.00
47985;BME280;33753;52.912;-7.342;2023-03-14T09:06:19;99606.84;;;6.38;100.00
47985;BME280;33753;52.912;-7.342;2023-03-14T09:08:47;99607.59;;;6.82;100.00
47985;BME280;33753;52.912;-7.342;2023-03-14T09:11:17;99616.28;;;6.75;100.00
47985;BME280;33753;52.912;-7.342;2023-03-14T09:13:45;99611.59;;;6.86;100.00
47985;BME280;33753;52.912;-7.342;2023-03-14T09:16:15;99603.34;;;7.12;100.00
47985;BME280;33753;52.912;-7.342;2023-03-14T09:18:43;99596.28;;;7.19;100.00
47985;BME280;33753;52.912;-7.342;2023-03-14T09:21:12;99591.47;;;7.94;100.00
47985;BME280;33753;52.912;-7.342;2023-03-14T09:23:41;99602.13;;;8.73;100.00
47985;BME280;33753;52.912;-7.342;2023-03-14T09:26:12;99614.00;;;9.40;100.00
47985;BME280;33753;52.912;-7.342;2023-03-14T09:28:43;99616.16;;;10.11;100.00
47985;BME280;33753;52.912;-7.342;2023-03-14T09:31:12;99612.91;;;10.52;100.00
47985;BME280;33753;52.912;-7.342;2023-03-14T09:33:41;99613.28;;;10.93;100.00
47985;BME280;33753;52.912;-7.342;2023-03-14T09:36:12;99600.75;;;10.85;100.00
47985;BME280;33753;52.912;-7.342;2023-03-14T09:38:41;99589.28;;;11.11;100.00
47985;BME280;33753;52.912;-7.342;2023-03-14T09:41:16;99589.00;;;11.28;100.00
47985;BME280;33753;52.912;-7.342;2023-03-14T09:43:48;99589.97;;;11.48;100.00
47985;BME280;33753;52.912;-7.342;2023-03-14T09:46:20;99586.44;;;11.89;100.00
47985;BME280;33753;52.912;-7.342;2023-03-14T09:48:49;99589.09;;;12.18;100.00
47985;BME280;33753;52.912;-7.342;2023-03-14T09:51:17;99576.31;;;11.63;100.00
47985;BME280;33753;52.912;-7.342;2023-03-14T09:53:50;99578.81;;;12.13;100.00
47985;BME280;33753;52.912;-7.342;2023-03-14T09:56:21;99570.78;;;12.33;100.00
47985;BME280;33753;52.912;-7.342;2023-03-14T09:58:55;99588.94;;;12.39;100.00
47985;BME280;33753;52.912;-7.342;2023-03-14T10:01:27;99605.28;;;13.00;100.00
47985;BME280;33753;52.912;-7.342;2023-03-14T10:04:01;99599.22;;;13.24;100.00
47985;BME280;33753;52.912;-7.342;2023-03-14T10:06:31;99598.34;;;13.71;100.00
47985;BME280;33753;52.912;-7.342;2023-03-14T10:09:02;99605.34;;;13.98;100.00
47985;BME280;33753;52.912;-7.342;2023-03-14T10:11:32;99613.63;;;14.17;100.00
47985;BME280;33753;52.912;-7.342;2023-03-14T10:14:05;99604.28;;;13.99;100.00
47985;BME280;33753;52.912;-7.342;2023-03-14T10:16:36;99608.28;;;13.90;100.00
47985;BME280;33753;52.912;-7.342;2023-03-14T10:19:07;99604.22;;;13.27;100.00
47985;BME280;33753;52.912;-7.342;2023-03-14T10:21:39;99604.22;;;12.60;100.00
47985;BME280;33753;52.912;-7.342;2023-03-14T10:24:15;99591.94;;;12.03;100.00
47985;BME280;33753;52.912;-7.342;2023-03-14T10:26:48;99605.25;;;11.63;100.00
47985;BME280;33753;52.912;-7.342;2023-03-14T10:29:19;99607.09;;;11.27;100.00
47985;BME280;33753;52.912;-7.342;2023-03-14T10:31:54;99605.31;;;10.84;100.00
47985;BME280;33753;52.912;-7.342;2023-03-14T10:34:25;99607.25;;;10.47;100.00
47985;BME280;33753;52.912;-7.342;2023-03-14T10:36:56;99626.53;;;10.08;100.00
47985;BME280;33753;52.912;-7.342;2023-03-14T10:39:35;99633.13;;;10.35;100.00
47985;BME280;33753;52.912;-7.342;2023-03-14T10:42:15;99622.22;;;10.65;100.00
47985;BME280;33753;52.912;-7.342;2023-03-14T10:44:49;99636.00;;;11.20;100.00
47985;BME280;33753;52.912;-7.342;2023-03-14T10:47:22;99631.03;;;11.23;100.00
47985;BME280;33753;52.912;-7.342;2023-03-14T10:49:52;99630.97;;;11.17;100.00
47985;BME280;33753;52.912;-7.342;2023-03-14T10:52:22;99621.09;;;11.31;100.00
47985;BME280;33753;52.912;-7.342;2023-03-14T10:55:13;99632.91;;;11.51;100.00
47985;BME280;33753;52.912;-7.342;2023-03-14T10:57:43;99637.41;;;11.72;100.00
47985;BME280;33753;52.912;-7.342;2023-03-14T11:00:19;99635.91;;;11.63;100.00
47985;BME280;33753;52.912;-7.342;2023-03-14T11:02:59;99616.09;;;11.28;100.00
47985;BME280;33753;52.912;-7.342;2023-03-14T11:05:37;99615.69;;;11.31;100.00
47985;BME280;33753;52.912;-7.342;2023-03-14T11:08:09;99623.53;;;11.19;100.00
47985;BME280;33753;52.912;-7.342;2023-03-14T11:10:39;99619.53;;;11.15;100.00
47985;BME280;33753;52.912;-7.342;2023-03-14T11:13:17;99616.88;;;10.20;100.00
47985;BME280;33753;52.912;-7.342;2023-03-14T11:15:58;99619.69;;;10.27;100.00
47985;BME280;33753;52.912;-7.342;2023-03-14T11:18:51;99620.50;;;9.91;100.00
47985;BME280;33753;52.912;-7.342;2023-03-14T11:21:29;99619.38;;;9.40;100.00
47985;BME280;33753;52.912;-7.342;2023-03-14T11:24:14;99628.88;;;9.51;100.00
47985;BME280;33753;52.912;-7.342;2023-03-14T11:26:48;99653.44;;;9.41;100.00
47985;BME280;33753;52.912;-7.342;2023-03-14T11:29:22;99650.38;;;9.44;100.00
47985;BME280;33753;52.912;-7.342;2023-03-14T11:32:00;99654.75;;;9.45;100.00
47985;BME280;33753;52.912;-7.342;2023-03-14T11:34:35;99662.38;;;9.42;100.00
47985;BME280;33753;52.912;-7.342;2023-03-14T11:37:15;99662.28;;;9.50;100.00
47985;BME280;33753;52.912;-7.342;2023-03-14T11:39:54;99650.22;;;9.61;100.00
47985;BME280;33753;52.912;-7.342;2023-03-14T11:42:24;99650.13;;;9.69;100.00
47985;BME280;33753;52.912;-7.342;2023-03-14T11:44:55;99641.66;;;9.72;100.00
47985;BME280;33753;52.912;-7.342;2023-03-14T11:47:30;99637.53;;;9.91;100.00
47985;BME280;33753;52.912;-7.342;2023-03-14T11:50:04;99643.03;;;9.98;100.00
47985;BME280;33753;52.912;-7.342;2023-03-14T11:52:39;99647.00;;;10.17;100.00
47985;BME280;33753;52.912;-7.342;2023-03-14T11:55:15;99650.28;;;10.12;100.00
47985;BME280;33753;52.912;-7.342;2023-03-14T11:57:47;99657.06;;;10.23;100.00
47985;BME280;33753;52.912;-7.342;2023-03-14T12:00:19;99649.63;;;9.95;100.00
47985;BME280;33753;52.912;-7.342;2023-03-14T12:02:55;99643.50;;;9.86;100.00
47985;BME280;33753;52.912;-7.342;2023-03-14T12:05:43;99644.34;;;9.72;100.00
47985;BME280;33753;52.912;-7.342;2023-03-14T12:08:37;99643.94;;;9.45;100.00
47985;BME280;33753;52.912;-7.342;2023-03-14T12:11:12;99648.84;;;9.12;100.00
47985;BME280;33753;52.912;-7.342;2023-03-14T12:13:46;99656.34;;;8.78;100.00
47985;BME280;33753;52.912;-7.342;2023-03-14T12:16:31;99657.72;;;8.43;100.00
47985;BME280;33753;52.912;-7.342;2023-03-14T12:19:24;99662.69;;;8.23;100.00
47985;BME280;33753;52.912;-7.342;2023-03-14T12:21:57;99671.34;;;8.10;100.00
47985;BME280;33753;52.912;-7.342;2023-03-14T12:24:28;99677.09;;;8.07;100.00
47985;BME280;33753;52.912;-7.342;2023-03-14T12:26:59;99677.66;;;7.94;100.00
47985;BME280;33753;52.912;-7.342;2023-03-14T12:29:29;99693.16;;;7.84;100.00
47985;BME280;33753;52.912;-7.342;2023-03-14T12:32:12;99706.03;;;7.32;100.00
47985;BME280;33753;52.912;-7.342;2023-03-14T12:34:51;99704.19;;;7.00;100.00
47985;BME280;33753;52.912;-7.342;2023-03-14T12:37:25;99710.41;;;6.33;100.00
47985;BME280;33753;52.912;-7.342;2023-03-14T12:40:02;99701.44;;;6.08;100.00
47985;BME280;33753;52.912;-7.342;2023-03-14T12:42:40;99718.78;;;5.95;100.00
47985;BME280;33753;52.912;-7.342;2023-03-14T12:45:29;99712.59;;;5.68;100.00
47985;BME280;33753;52.912;-7.342;2023-03-14T12:48:09;99714.56;;;5.58;100.00
47985;BME280;33753;52.912;-7.342;2023-03-14T12:50:43;99711.63;;;5.43;100.00
47985;BME280;33753;52.912;-7.342;2023-03-14T12:56:24;99736.91;;;5.93;100.00
47985;BME280;33753;52.912;-7.342;2023-03-14T12:59:14;99740.69;;;6.09;100.00
47985;BME280;33753;52.912;-7.342;2023-03-14T13:01:55;99736.84;;;6.11;100.00
47985;BME280;33753;52.912;-7.342;2023-03-14T13:04:29;99726.28;;;6.10;100.00
47985;BME280;33753;52.912;-7.342;2023-03-14T13:07:11;99727.56;;;6.40;100.00
47985;BME280;33753;52.912;-7.342;2023-03-14T13:10:17;99719.81;;;6.29;100.00
47985;BME280;33753;52.912;-7.342;2023-03-14T13:12:50;99722.19;;;6.40;100.00
47985;BME280;33753;52.912;-7.342;2023-03-14T13:15:30;99720.06;;;6.52;100.00
47985;BME280;33753;52.912;-7.342;2023-03-14T13:18:02;99728.19;;;6.77;100.00
47985;BME280;33753;52.912;-7.342;2023-03-14T13:20:35;99727.84;;;6.80;100.00
47985;BME280;33753;52.912;-7.342;2023-03-14T13:23:19;99744.03;;;7.13;100.00